createdAt,value
2017-11-21T00:00:57.338Z,6.80
2017-11-21T00:03:24.841Z,6.80
2017-11-21T00:05:52.332Z,6.80
2017-11-21T00:08:19.912Z,6.70
2017-11-21T00:10:47.408Z,6.60
2017-11-21T00:13:14.924Z,6.50
2017-11-21T00:15:42.585Z,6.50
2017-11-21T00:18:10.098Z,6.50
2017-11-21T00:20:37.825Z,6.40
2017-11-21T00:23:05.464Z,6.40
2017-11-21T00:25:32.969Z,6.30
2017-11-21T00:28:00.467Z,6.40
2017-11-21T00:30:28.049Z,6.30
2017-11-21T00:32:55.565Z,6.30
2017-11-21T00:35:23.064Z,6.20
2017-11-21T00:37:50.737Z,6.30
2017-11-21T00:40:18.243Z,6.30
2017-11-21T00:42:45.745Z,6.30
2017-11-21T00:45:13.293Z,6.30
2017-11-21T00:47:40.792Z,6.30
2017-11-21T00:50:09.055Z,6.10
2017-11-21T00:52:37.376Z,6.10
2017-11-21T00:55:04.878Z,6.10
2017-11-21T00:57:32.396Z,6.10
2017-11-21T01:00:00.036Z,6.10
2017-11-21T01:02:27.555Z,6.10
2017-11-21T01:04:55.069Z,6.20
2017-11-21T01:07:23.247Z,6.30
2017-11-21T01:09:50.527Z,6.20
2017-11-21T01:12:18.020Z,6.20
2017-11-21T01:14:45.590Z,6.20
2017-11-21T01:17:13.143Z,6.30
2017-11-21T01:19:40.656Z,6.30
2017-11-21T01:22:08.221Z,6.30
2017-11-21T01:24:35.736Z,6.30
2017-11-21T01:27:03.227Z,6.40
2017-11-21T01:29:30.790Z,6.40
2017-11-21T01:31:58.287Z,6.30
2017-11-21T01:34:26.552Z,6.40
2017-11-21T01:36:54.108Z,6.40
2017-11-21T01:39:21.619Z,6.40
2017-11-21T01:41:49.120Z,6.40
2017-11-21T01:44:16.661Z,6.40
2017-11-21T01:46:44.208Z,6.40
2017-11-21T01:49:11.716Z,6.40
2017-11-21T01:51:39.506Z,6.40
2017-11-21T01:54:07.003Z,6.50
2017-11-21T01:56:34.501Z,6.40
2017-11-21T01:59:02.828Z,6.40
2017-11-21T02:01:30.332Z,6.40
2017-11-21T02:03:57.836Z,6.40
2017-11-21T02:06:25.368Z,6.30
2017-11-21T02:08:52.888Z,6.40
2017-11-21T02:11:20.487Z,6.40
2017-11-21T02:13:48.002Z,6.40
2017-11-21T02:16:15.499Z,6.40
2017-11-21T02:18:43.791Z,6.50
2017-11-21T02:21:11.401Z,6.40
2017-11-21T02:23:38.909Z,6.40
2017-11-21T02:26:06.488Z,6.40
2017-11-21T02:28:33.988Z,6.40
2017-11-21T02:31:01.485Z,6.40
2017-11-21T02:33:29.149Z,6.40
2017-11-21T02:35:56.685Z,6.40
2017-11-21T02:38:24.183Z,6.20
2017-11-21T02:40:51.833Z,6.30
2017-11-21T02:43:19.356Z,6.20
2017-11-21T02:45:46.869Z,6.20
2017-11-21T02:48:14.745Z,6.10
2017-11-21T02:50:43.007Z,6.20
2017-11-21T02:53:10.508Z,6.20
2017-11-21T02:55:38.052Z,6.20
2017-11-21T02:58:05.930Z,6.20
2017-11-21T03:00:33.436Z,6.30
2017-11-21T03:03:00.979Z,6.30
2017-11-21T03:05:28.484Z,6.30
2017-11-21T03:07:55.996Z,6.30
2017-11-21T03:10:24.020Z,6.40
2017-11-21T03:12:51.919Z,6.30
2017-11-21T03:15:19.455Z,6.40
2017-11-21T03:17:46.989Z,6.40
2017-11-21T03:20:26.812Z,6.40
2017-11-21T03:23:06.101Z,6.50
2017-11-21T03:39:00.130Z,6.50
2017-11-21T03:41:27.671Z,6.40
2017-11-21T03:43:55.177Z,6.40
2017-11-21T03:46:22.725Z,6.40
2017-11-21T03:48:50.502Z,6.50
2017-11-21T03:51:18.007Z,6.50
2017-11-21T03:53:45.530Z,6.50
2017-11-21T03:56:13.083Z,6.50
2017-11-21T03:58:40.584Z,6.50
2017-11-21T04:01:08.082Z,6.50
2017-11-21T04:03:35.628Z,6.50
2017-11-21T04:06:03.557Z,6.50
2017-11-21T04:08:31.061Z,6.50
2017-11-21T04:10:58.719Z,6.40
2017-11-21T04:13:26.996Z,6.50
2017-11-21T04:15:54.495Z,6.50
2017-11-21T04:18:22.056Z,6.60
2017-11-21T04:20:49.661Z,6.50
2017-11-21T04:23:17.165Z,6.50
2017-11-21T04:25:44.861Z,6.50
2017-11-21T04:28:12.377Z,6.50
2017-11-21T04:30:40.101Z,6.60
2017-11-21T04:33:07.776Z,6.60
2017-11-21T04:35:35.275Z,6.70
2017-11-21T04:38:02.767Z,6.70
2017-11-21T04:40:30.308Z,6.70
2017-11-21T04:42:57.820Z,6.80
2017-11-21T04:45:25.320Z,6.70
2017-11-21T04:47:52.894Z,6.80
2017-11-21T04:50:21.845Z,6.80
2017-11-21T04:52:49.353Z,6.80
2017-11-21T04:55:17.081Z,6.90
2017-11-21T04:57:44.593Z,6.80
2017-11-21T05:00:12.090Z,6.90
2017-11-21T05:02:39.734Z,6.80
2017-11-21T05:05:07.439Z,6.90
2017-11-21T05:07:34.960Z,6.90
2017-11-21T05:10:02.509Z,7.00
2017-11-21T05:12:30.009Z,6.90
2017-11-21T05:14:57.519Z,7.00
2017-11-21T05:17:25.075Z,7.00
2017-11-21T05:19:52.581Z,7.00
2017-11-21T05:22:20.101Z,7.10
2017-11-21T05:24:47.656Z,7.10
2017-11-21T05:27:15.152Z,7.10
2017-11-21T05:29:42.652Z,7.20
2017-11-21T05:32:13.245Z,7.20
2017-11-21T05:34:40.755Z,7.30
2017-11-21T05:37:08.249Z,7.30
2017-11-21T05:39:35.890Z,7.40
2017-11-21T05:42:03.387Z,7.30
2017-11-21T05:44:30.900Z,7.30
2017-11-21T05:46:58.556Z,7.30
2017-11-21T05:49:26.060Z,7.40
2017-11-21T05:51:54.328Z,7.40
2017-11-21T05:54:21.887Z,7.40
2017-11-21T05:56:49.404Z,7.30
2017-11-21T05:59:16.910Z,7.40
2017-11-21T06:01:44.708Z,7.30
2017-11-21T06:04:12.223Z,7.40
2017-11-21T06:06:39.755Z,7.40
2017-11-21T06:09:07.348Z,7.40
2017-11-21T06:11:34.855Z,7.40
2017-11-21T06:14:03.128Z,7.50
2017-11-21T06:16:31.733Z,7.50
2017-11-21T06:18:59.536Z,7.40
2017-11-21T06:21:27.043Z,7.50
2017-11-21T06:23:54.596Z,7.50
2017-11-21T06:26:22.099Z,7.50
2017-11-21T06:28:49.812Z,7.60
2017-11-21T06:31:17.695Z,7.60
2017-11-21T06:33:45.196Z,7.60
2017-11-21T06:36:13.478Z,7.60
2017-11-21T06:38:41.031Z,7.60
2017-11-21T06:41:08.531Z,7.60
2017-11-21T06:43:36.252Z,7.60
2017-11-21T06:46:03.807Z,7.70
2017-11-21T06:48:31.316Z,7.70
2017-11-21T06:50:58.808Z,7.70
2017-11-21T06:53:26.220Z,7.70
2017-11-21T06:55:54.119Z,7.80
2017-11-21T06:58:21.648Z,7.80
2017-11-21T07:00:49.188Z,7.80
2017-11-21T07:03:16.696Z,7.80
2017-11-21T07:05:44.195Z,7.70
2017-11-21T07:08:11.850Z,7.70
2017-11-21T07:10:39.359Z,7.60
2017-11-21T07:13:06.865Z,7.60
2017-11-21T07:15:34.426Z,7.50
2017-11-21T07:18:02.108Z,7.50
2017-11-21T07:20:30.440Z,7.50
2017-11-21T07:22:58.115Z,7.40
2017-11-21T07:25:25.615Z,7.50
2017-11-21T07:27:53.111Z,7.40
2017-11-21T07:30:20.732Z,7.50
2017-11-21T07:32:48.238Z,7.50
2017-11-21T07:35:15.565Z,7.40
2017-11-21T07:37:43.069Z,7.50
2017-11-21T07:40:10.571Z,7.50
2017-11-21T07:42:38.120Z,7.50
2017-11-21T07:45:06.385Z,7.40
2017-11-21T07:47:34.652Z,7.50
2017-11-21T07:50:02.213Z,7.40
2017-11-21T07:52:29.727Z,7.40
2017-11-21T07:54:57.224Z,7.30
2017-11-21T07:57:24.805Z,7.40
2017-11-21T07:59:52.310Z,7.40
2017-11-21T08:02:19.811Z,7.40
2017-11-21T08:04:47.361Z,7.40
2017-11-21T08:07:15.220Z,7.20
2017-11-21T08:09:42.726Z,7.30
2017-11-21T08:12:10.300Z,7.30
2017-11-21T08:14:37.803Z,7.30
2017-11-21T08:17:05.307Z,7.20
2017-11-21T08:19:32.869Z,7.20
2017-11-21T08:22:00.369Z,7.30
2017-11-21T08:24:27.879Z,7.30
2017-11-21T08:26:55.437Z,7.30
2017-11-21T08:29:22.936Z,7.30
2017-11-21T08:31:50.435Z,7.30
2017-11-21T08:34:17.992Z,7.30
2017-11-21T08:36:46.264Z,7.40
2017-11-21T08:39:13.767Z,7.40
2017-11-21T08:41:41.299Z,7.50
2017-11-21T08:44:08.800Z,7.50
2017-11-21T08:46:36.304Z,7.50
2017-11-21T08:49:05.268Z,7.50
2017-11-21T08:51:32.781Z,7.40
2017-11-21T08:54:00.276Z,7.60
2017-11-21T08:56:27.843Z,7.60
2017-11-21T08:58:55.340Z,7.70
2017-11-21T09:01:22.835Z,7.70
2017-11-21T09:03:50.388Z,7.80
2017-11-21T09:06:17.888Z,7.70
2017-11-21T09:08:45.393Z,7.70
2017-11-21T09:11:12.959Z,7.70
2017-11-21T09:13:40.456Z,7.80
2017-11-21T09:16:07.957Z,7.70
2017-11-21T09:18:35.509Z,7.70
2017-11-21T09:21:03.783Z,7.70
2017-11-21T09:23:31.313Z,7.70
2017-11-21T09:25:58.868Z,7.90
2017-11-21T09:28:26.376Z,7.90
2017-11-21T09:30:53.880Z,8.10
2017-11-21T09:33:21.436Z,7.90
2017-11-21T09:35:48.941Z,7.90
2017-11-21T09:38:17.205Z,7.90
2017-11-21T09:40:45.540Z,7.90
2017-11-21T09:43:13.036Z,7.90
2017-11-21T09:45:40.531Z,7.80
2017-11-21T09:48:08.081Z,7.90
2017-11-21T09:50:35.594Z,8.00
2017-11-21T09:53:03.090Z,8.00
2017-11-21T09:55:30.700Z,8.00
2017-11-21T09:57:57.963Z,7.80
2017-11-21T10:00:25.544Z,7.90
2017-11-21T10:02:53.109Z,7.90
2017-11-21T10:05:20.612Z,8.00
2017-11-21T10:07:48.107Z,8.10
2017-11-21T10:10:15.665Z,8.00
2017-11-21T10:12:43.163Z,8.00
2017-11-21T10:15:10.663Z,8.10
2017-11-21T10:17:38.227Z,8.10
2017-11-21T10:20:05.741Z,8.30
2017-11-21T10:22:33.236Z,8.30
2017-11-21T10:25:00.772Z,8.30
2017-11-21T10:27:28.280Z,8.30
2017-11-21T10:29:55.824Z,8.30
2017-11-21T10:32:23.368Z,8.40
2017-11-21T10:34:50.867Z,8.50
2017-11-21T10:37:18.359Z,8.50
2017-11-21T10:39:45.907Z,8.70
2017-11-21T10:42:13.439Z,8.80
2017-11-21T10:44:41.031Z,8.90
2017-11-21T10:47:08.897Z,8.80
2017-11-21T10:49:36.396Z,8.90
2017-11-21T10:52:03.957Z,8.80
2017-11-21T10:54:31.464Z,9.00
2017-11-21T10:56:58.968Z,9.00
2017-11-21T10:59:26.529Z,9.20
2017-11-21T11:01:54.030Z,9.30
2017-11-21T11:04:21.526Z,9.40
2017-11-21T11:06:49.289Z,9.30
2017-11-21T11:09:16.868Z,9.70
2017-11-21T11:11:44.390Z,9.80
2017-11-21T11:14:11.988Z,9.90
2017-11-21T11:16:39.511Z,9.90
2017-11-21T11:19:07.060Z,10.30
2017-11-21T11:21:35.253Z,10.50
2017-11-21T11:24:02.762Z,10.80
2017-11-21T11:26:30.523Z,11.10
2017-11-21T11:28:58.174Z,11.50
2017-11-21T11:31:25.819Z,11.70
2017-11-21T11:33:53.332Z,11.80
2017-11-21T11:36:20.907Z,12.00
2017-11-21T11:38:48.403Z,12.10
2017-11-21T11:41:15.903Z,12.10
2017-11-21T11:43:43.464Z,12.00
2017-11-21T11:46:10.968Z,12.00
2017-11-21T11:48:39.476Z,12.00
2017-11-21T11:51:08.514Z,11.90
2017-11-21T11:53:37.659Z,12.50
2017-11-21T11:56:05.254Z,12.50
2017-11-21T11:58:32.773Z,12.50
2017-11-21T12:01:00.272Z,12.80
2017-11-21T12:03:28.172Z,12.50
2017-11-21T12:05:55.672Z,12.60
2017-11-21T12:08:23.185Z,12.50
2017-11-21T12:10:50.738Z,12.80
2017-11-21T12:13:18.244Z,12.60
2017-11-21T12:15:45.752Z,12.70
2017-11-21T12:18:13.311Z,12.60
2017-11-21T12:20:40.822Z,12.60
2017-11-21T12:23:08.349Z,12.70
2017-11-21T12:25:35.896Z,12.70
2017-11-21T12:28:03.431Z,12.90
2017-11-21T12:30:31.702Z,12.60
2017-11-21T12:32:59.383Z,12.60
2017-11-21T12:35:27.743Z,12.80
2017-11-21T12:37:55.452Z,12.70
2017-11-21T12:40:22.972Z,12.60
2017-11-21T12:42:51.292Z,13.00
2017-11-21T12:45:18.623Z,13.10
2017-11-21T12:47:46.288Z,12.90
2017-11-21T12:50:13.868Z,12.70
2017-11-21T12:52:41.816Z,12.80
2017-11-21T12:55:09.436Z,13.00
2017-11-21T12:57:36.948Z,12.90
2017-11-21T13:00:04.521Z,12.90
2017-11-21T13:02:32.028Z,12.80
2017-11-21T13:04:59.957Z,12.90
2017-11-21T13:07:27.658Z,13.00
2017-11-21T13:09:55.163Z,13.10
2017-11-21T13:12:22.667Z,12.80
2017-11-21T13:14:50.242Z,12.90
2017-11-21T13:17:18.524Z,12.90
2017-11-21T13:19:46.796Z,13.10
2017-11-21T13:22:15.111Z,13.10
2017-11-21T13:24:42.613Z,13.00
2017-11-21T13:27:10.122Z,13.20
2017-11-21T13:29:37.699Z,13.10
2017-11-21T13:32:05.220Z,13.00
2017-11-21T13:34:32.724Z,12.90
2017-11-21T13:37:00.619Z,12.80
2017-11-21T13:39:28.124Z,12.80
2017-11-21T13:41:55.931Z,12.60
2017-11-21T13:44:23.549Z,12.20
2017-11-21T13:46:50.820Z,11.90
2017-11-21T13:49:18.339Z,11.90
2017-11-21T13:51:46.673Z,12.00
2017-11-21T13:54:14.396Z,12.00
2017-11-21T13:56:41.941Z,11.90
2017-11-21T13:59:09.611Z,11.90
2017-11-21T14:01:37.567Z,12.10
2017-11-21T14:04:05.068Z,12.20
2017-11-21T14:06:32.603Z,12.30
2017-11-21T14:09:00.161Z,12.40
2017-11-21T14:11:27.680Z,12.40
2017-11-21T14:13:55.184Z,12.50
2017-11-21T14:16:22.740Z,12.50
2017-11-21T14:18:50.260Z,12.40
2017-11-21T14:21:17.759Z,12.20
2017-11-21T14:23:45.311Z,11.90
2017-11-21T14:26:12.820Z,11.80
2017-11-21T14:28:40.324Z,11.70
2017-11-21T14:31:07.875Z,11.70
2017-11-21T14:33:35.376Z,11.70
2017-11-21T14:36:02.883Z,11.70
2017-11-21T14:38:32.040Z,11.40
2017-11-21T14:41:00.320Z,11.30
2017-11-21T14:43:27.604Z,11.30
2017-11-21T14:45:55.247Z,11.20
2017-11-21T14:48:22.832Z,11.10
2017-11-21T14:50:51.120Z,11.00
2017-11-21T14:53:18.660Z,11.00
2017-11-21T14:55:46.371Z,10.90
2017-11-21T14:58:13.872Z,10.80
2017-11-21T15:00:41.532Z,10.70
2017-11-21T15:03:09.081Z,10.50
2017-11-21T15:05:36.441Z,10.40
2017-11-21T15:08:03.948Z,10.20
2017-11-21T15:10:31.459Z,10.10
2017-11-21T15:12:59.637Z,9.90
2017-11-21T15:15:27.908Z,9.80
2017-11-21T15:17:55.504Z,9.80
2017-11-21T15:20:23.690Z,9.70
2017-11-21T15:22:51.947Z,9.70
2017-11-21T15:25:21.113Z,9.60
2017-11-21T15:27:48.664Z,9.60
2017-11-21T15:30:16.176Z,9.50
2017-11-21T15:32:44.369Z,9.40
2017-11-21T15:35:12.808Z,9.30
2017-11-21T15:37:41.071Z,9.10
2017-11-21T15:40:09.601Z,9.10
2017-11-21T15:42:37.901Z,9.10
2017-11-21T15:45:05.848Z,9.20
2017-11-21T15:47:33.442Z,9.10
2017-11-21T15:50:00.950Z,9.00
2017-11-21T15:52:29.225Z,8.80
2017-11-21T15:54:57.340Z,8.80
2017-11-21T15:57:25.600Z,8.80
2017-11-21T15:59:53.880Z,8.80
2017-11-21T16:02:21.629Z,8.80
2017-11-21T16:04:49.140Z,8.70
2017-11-21T16:07:16.911Z,8.70
2017-11-21T16:09:44.536Z,8.80
2017-11-21T16:12:12.124Z,8.80
2017-11-21T16:14:39.631Z,8.70
2017-11-21T16:17:07.159Z,8.60
2017-11-21T16:19:34.804Z,8.40
2017-11-21T16:22:02.313Z,8.30
2017-11-21T16:24:29.929Z,8.30
2017-11-21T16:26:57.541Z,8.10
2017-11-21T16:29:25.152Z,8.10
2017-11-21T16:31:52.724Z,8.10
2017-11-21T16:34:20.831Z,8.00
2017-11-21T16:36:48.373Z,7.90
2017-11-21T16:39:16.007Z,7.80
2017-11-21T16:41:43.684Z,7.70
2017-11-21T16:44:11.363Z,7.60
2017-11-21T16:46:38.868Z,7.60
2017-11-21T16:49:06.777Z,7.50
2017-11-21T16:51:34.390Z,7.50
2017-11-21T16:54:01.921Z,7.50
2017-11-21T16:56:29.595Z,7.60
2017-11-21T16:58:57.119Z,7.70
2017-11-21T17:01:25.311Z,7.60
2017-11-21T17:03:52.825Z,7.60
2017-11-21T17:06:20.395Z,7.60
2017-11-21T17:08:47.925Z,7.50
2017-11-21T17:11:15.514Z,7.70
2017-11-21T17:13:43.036Z,7.50
2017-11-21T17:16:10.544Z,7.50
2017-11-21T17:18:39.056Z,7.40
2017-11-21T17:21:06.716Z,7.40
2017-11-21T17:23:34.455Z,7.50
2017-11-21T17:26:02.013Z,7.50
2017-11-21T17:28:30.284Z,7.40
2017-11-21T17:30:58.695Z,7.50
2017-11-21T17:33:27.008Z,7.40
2017-11-21T17:35:54.739Z,7.40
2017-11-21T17:38:22.271Z,7.30
2017-11-21T17:40:49.835Z,7.30
2017-11-21T17:43:18.241Z,7.40
2017-11-21T17:45:45.752Z,7.40
2017-11-21T17:48:13.332Z,7.30
2017-11-21T17:50:41.057Z,7.30
2017-11-21T17:53:08.575Z,7.40
2017-11-21T17:55:36.148Z,7.30
2017-11-21T17:58:03.684Z,7.30
2017-11-21T18:00:31.261Z,7.10
2017-11-21T18:02:58.909Z,7.10
2017-11-21T18:05:26.410Z,7.20
2017-11-21T18:07:54.078Z,7.10
2017-11-21T18:10:21.752Z,7.20
2017-11-21T18:12:49.683Z,7.10
2017-11-21T18:15:17.191Z,7.20
2017-11-21T18:17:45.718Z,7.00
2017-11-21T18:20:13.233Z,7.00
2017-11-21T18:22:40.740Z,6.90
2017-11-21T18:25:08.317Z,6.90
2017-11-21T18:27:35.881Z,6.80
2017-11-21T18:30:03.400Z,6.80
2017-11-21T18:32:31.343Z,6.80
2017-11-21T18:34:59.695Z,6.70
2017-11-21T18:37:27.256Z,6.70
2017-11-21T18:39:54.804Z,6.70
2017-11-21T18:42:22.314Z,6.90
2017-11-21T18:44:49.864Z,6.90
2017-11-21T18:47:18.189Z,6.90
2017-11-21T18:49:45.716Z,6.90
2017-11-21T18:52:13.229Z,6.90
2017-11-21T18:54:40.865Z,6.90
2017-11-21T18:57:08.371Z,6.90
2017-11-21T18:59:35.880Z,6.90
2017-11-21T19:02:04.063Z,6.90
2017-11-21T19:04:31.574Z,7.00
2017-11-21T19:06:59.084Z,7.00
2017-11-21T19:09:26.660Z,7.00
2017-11-21T19:11:54.744Z,6.80
2017-11-21T19:14:22.372Z,6.80
2017-11-21T19:16:50.005Z,6.70
2017-11-21T19:19:17.548Z,6.60
2017-11-21T19:21:45.253Z,6.60
2017-11-21T19:24:12.987Z,6.60
2017-11-21T19:26:40.568Z,6.60
2017-11-21T19:29:08.553Z,6.60
2017-11-21T19:31:36.124Z,6.60
2017-11-21T19:34:03.723Z,6.50
2017-11-21T19:36:32.020Z,6.50
2017-11-21T19:38:59.547Z,6.50
2017-11-21T19:41:27.108Z,6.50
2017-11-21T19:43:55.380Z,6.30
2017-11-21T19:46:22.884Z,6.30
2017-11-21T19:48:50.788Z,6.30
2017-11-21T19:51:18.298Z,6.30
2017-11-21T19:53:45.809Z,6.20
2017-11-21T19:56:13.364Z,6.10
2017-11-21T19:58:41.008Z,6.00
2017-11-21T20:01:08.513Z,5.90
2017-11-21T20:03:36.093Z,5.90
2017-11-21T20:06:03.611Z,5.80
2017-11-21T20:08:31.111Z,5.80
2017-11-21T20:10:58.675Z,5.80
2017-11-21T20:13:26.255Z,5.70
2017-11-21T20:15:53.844Z,5.60
2017-11-21T20:18:21.353Z,5.60
2017-11-21T20:20:48.995Z,5.50
2017-11-21T20:23:16.571Z,5.40
2017-11-21T20:25:44.255Z,5.40
2017-11-21T20:28:12.057Z,5.30
2017-11-21T20:30:39.571Z,5.30
2017-11-21T20:33:07.072Z,5.30
2017-11-21T20:35:34.629Z,5.30
2017-11-21T20:38:02.148Z,5.30
2017-11-21T20:40:29.647Z,5.30
2017-11-21T20:42:57.229Z,5.10
2017-11-21T20:45:25.495Z,4.90
2017-11-21T20:47:52.993Z,4.90
2017-11-21T20:50:20.536Z,4.80
2017-11-21T20:52:48.051Z,4.70
2017-11-21T20:55:15.565Z,4.60
2017-11-21T20:57:43.128Z,4.60
2017-11-21T21:00:10.643Z,4.50
2017-11-21T21:02:38.159Z,4.40
2017-11-21T21:05:05.853Z,4.30
2017-11-21T21:07:33.367Z,4.30
2017-11-21T21:10:01.162Z,4.30
2017-11-21T21:12:28.678Z,4.60
2017-11-21T21:14:56.235Z,4.50
2017-11-21T21:17:23.787Z,4.30
2017-11-21T21:19:51.296Z,4.10
2017-11-21T21:22:18.889Z,4.00
2017-11-21T21:24:46.673Z,3.90
2017-11-21T21:27:26.656Z,3.90
2017-11-21T21:29:54.159Z,3.90
2017-11-21T21:32:21.670Z,3.90
2017-11-21T21:34:49.215Z,3.80
2017-11-21T21:37:16.728Z,3.80
2017-11-21T21:39:44.235Z,3.70
2017-11-21T21:42:11.792Z,3.70
2017-11-21T21:44:39.308Z,3.70
2017-11-21T21:47:06.816Z,3.60
2017-11-21T21:49:34.355Z,3.50
2017-11-21T21:52:02.632Z,3.60
2017-11-21T21:54:30.904Z,3.80
2017-11-21T21:56:58.623Z,3.80
2017-11-21T21:59:26.898Z,3.80
2017-11-21T22:01:54.635Z,3.80
2017-11-21T22:04:22.187Z,3.70
2017-11-21T22:09:43.761Z,3.70
2017-11-21T22:12:11.941Z,3.60
2017-11-21T22:14:40.167Z,3.60
2017-11-21T22:17:08.561Z,3.60
2017-11-21T22:19:36.088Z,3.40
2017-11-21T22:22:03.665Z,3.40
2017-11-21T22:24:32.591Z,3.40
2017-11-21T22:27:00.785Z,3.40
2017-11-21T22:29:29.020Z,3.40
2017-11-21T22:31:56.532Z,3.30
2017-11-21T22:34:24.040Z,3.30
2017-11-21T22:36:52.276Z,3.40
2017-11-21T22:39:20.596Z,3.40
2017-11-21T22:41:48.748Z,3.40
2017-11-21T22:44:16.308Z,3.40
2017-11-21T22:46:44.103Z,3.30
2017-11-21T22:49:11.896Z,3.20
2017-11-21T22:51:39.520Z,3.20
2017-11-21T22:54:07.030Z,3.20
2017-11-21T22:56:36.052Z,3.10
2017-11-21T22:59:05.086Z,3.10
2017-11-21T23:01:32.601Z,3.10
2017-11-21T23:04:00.112Z,3.10
2017-11-21T23:06:27.900Z,3.20
2017-11-21T23:08:55.416Z,3.30
2017-11-21T23:11:23.556Z,3.30
2017-11-21T23:13:51.551Z,3.30
2017-11-21T23:16:19.065Z,3.30
2017-11-21T23:18:47.364Z,3.20
2017-11-21T23:21:14.931Z,3.20
2017-11-21T23:23:42.449Z,3.20
2017-11-21T23:26:10.796Z,3.20
2017-11-21T23:28:38.348Z,3.10
2017-11-21T23:31:05.858Z,3.20
2017-11-21T23:33:33.360Z,3.20
2017-11-21T23:36:00.917Z,3.20
2017-11-21T23:38:28.425Z,3.20
2017-11-21T23:40:55.937Z,3.30
2017-11-21T23:43:23.516Z,3.40
2017-11-21T23:45:51.274Z,3.50
2017-11-21T23:48:18.797Z,3.50
2017-11-21T23:50:46.364Z,3.50
2017-11-21T23:53:14.361Z,3.50
2017-11-21T23:55:41.869Z,3.50
2017-11-21T23:58:09.485Z,3.50
